sensor_id;sensor_type;location;lat;lon;timestamp;temperature;humidity
6956;DHT22;50345;51.136;16.886;2022-08-20T11:37:59;36.40;74.90
6956;DHT22;50345;51.136;16.886;2022-08-20T11:40:26;36.90;72.70
6956;DHT22;50345;51.136;16.886;2022-08-20T12:00:06;35.00;63.40
6956;DHT22;50345;51.136;16.886;2022-08-20T12:02:34;34.70;63.80
6956;DHT22;50345;51.136;16.886;2022-08-20T12:07:26;34.00;67.40
6956;DHT22;50345;51.136;16.886;2022-08-20T12:09:52;34.00;69.30
6956;DHT22;50345;51.136;16.886;2022-08-20T12:12:19;33.80;72.00
6956;DHT22;50345;51.136;16.886;2022-08-20T12:17:15;35.60;69.00
6956;DHT22;50345;51.136;16.886;2022-08-20T12:22:10;38.00;58.60
6956;DHT22;50345;51.136;16.886;2022-08-20T12:24:36;38.40;56.90
6956;DHT22;50345;51.136;16.886;2022-08-20T12:27:14;38.10;56.50
6956;DHT22;50345;51.136;16.886;2022-08-20T12:29:41;37.50;57.20
6956;DHT22;50345;51.136;16.886;2022-08-20T12:34:37;36.20;58.50
6956;DHT22;50345;51.136;16.886;2022-08-20T12:39:31;35.00;62.30
6956;DHT22;50345;51.136;16.886;2022-08-20T12:44:25;35.50;63.60
6956;DHT22;50345;51.136;16.886;2022-08-20T12:51:42;37.50;57.90
6956;DHT22;50345;51.136;16.886;2022-08-20T13:08:49;36.40;56.80
6956;DHT22;50345;51.136;16.886;2022-08-20T13:11:14;36.00;58.80
6956;DHT22;50345;51.136;16.886;2022-08-20T13:16:07;35.50;59.00
6956;DHT22;50345;51.136;16.886;2022-08-20T17:44:25;22.30;99.90
6956;DHT22;50345;51.136;16.886;2022-08-20T17:46:54;22.10;99.90
6956;DHT22;50345;51.136;16.886;2022-08-20T17:50:14;22.00;99.90
6956;DHT22;50345;51.136;16.886;2022-08-20T17:57:16;21.80;99.90
6956;DHT22;50345;51.136;16.886;2022-08-20T17:59:46;21.80;99.90
6956;DHT22;50345;51.136;16.886;2022-08-20T18:02:13;21.80;99.90
6956;DHT22;50345;51.136;16.886;2022-08-20T18:04:38;21.70;99.90
6956;DHT22;50345;51.136;16.886;2022-08-20T18:10:00;21.60;99.90
6956;DHT22;50345;51.136;16.886;2022-08-20T18:12:42;21.70;99.90
6956;DHT22;50345;51.136;16.886;2022-08-20T18:15:18;21.70;99.90
6956;DHT22;50345;51.136;16.886;2022-08-20T18:23:29;21.70;99.90
6956;DHT22;50345;51.136;16.886;2022-08-20T18:28:36;21.70;99.90
6956;DHT22;50345;51.136;16.886;2022-08-20T18:31:04;21.70;99.90
6956;DHT22;50345;51.136;16.886;2022-08-20T18:33:40;21.60;99.90
6956;DHT22;50345;51.136;16.886;2022-08-20T18:36:11;21.70;99.90
6956;DHT22;50345;51.136;16.886;2022-08-20T18:38:40;21.70;99.90
6956;DHT22;50345;51.136;16.886;2022-08-20T18:41:08;21.80;99.90
6956;DHT22;50345;51.136;16.886;2022-08-20T18:43:34;21.80;99.90
6956;DHT22;50345;51.136;16.886;2022-08-20T19:06:45;21.60;99.90
6956;DHT22;50345;51.136;16.886;2022-08-20T19:15:10;21.60;99.90
6956;DHT22;50345;51.136;16.886;2022-08-20T19:20:23;21.70;99.90
6956;DHT22;50345;51.136;16.886;2022-08-20T19:22:51;21.70;99.90
6956;DHT22;50345;51.136;16.886;2022-08-20T19:25:28;21.70;99.90
6956;DHT22;50345;51.136;16.886;2022-08-20T19:27:56;21.60;99.90
6956;DHT22;50345;51.136;16.886;2022-08-20T19:30:38;21.60;99.90
6956;DHT22;50345;51.136;16.886;2022-08-20T19:33:06;21.60;99.90
6956;DHT22;50345;51.136;16.886;2022-08-20T19:35:32;21.60;99.90
6956;DHT22;50345;51.136;16.886;2022-08-20T19:37:58;21.60;99.90
6956;DHT22;50345;51.136;16.886;2022-08-20T19:40:30;21.60;99.90
6956;DHT22;50345;51.136;16.886;2022-08-20T19:42:59;21.60;99.90
6956;DHT22;50345;51.136;16.886;2022-08-20T19:53:29;21.60;99.90
6956;DHT22;50345;51.136;16.886;2022-08-20T19:58:26;21.60;99.90
6956;DHT22;50345;51.136;16.886;2022-08-20T20:00:53;21.60;99.90
6956;DHT22;50345;51.136;16.886;2022-08-20T20:03:25;21.60;99.90
6956;DHT22;50345;51.136;16.886;2022-08-20T20:08:39;21.60;99.90
6956;DHT22;50345;51.136;16.886;2022-08-20T20:11:05;21.50;99.90
6956;DHT22;50345;51.136;16.886;2022-08-20T20:13:31;21.50;99.90
6956;DHT22;50345;51.136;16.886;2022-08-20T20:16:00;21.50;99.90
6956;DHT22;50345;51.136;16.886;2022-08-20T20:18:31;21.50;99.90
6956;DHT22;50345;51.136;16.886;2022-08-20T20:21:15;21.60;99.90
6956;DHT22;50345;51.136;16.886;2022-08-20T20:23:57;21.50;99.90
6956;DHT22;50345;51.136;16.886;2022-08-20T20:26:23;21.50;99.90
6956;DHT22;50345;51.136;16.886;2022-08-20T20:29:01;21.50;99.90
6956;DHT22;50345;51.136;16.886;2022-08-20T20:31:31;21.50;99.90
6956;DHT22;50345;51.136;16.886;2022-08-20T20:33:59;21.50;99.90
6956;DHT22;50345;51.136;16.886;2022-08-20T20:36:37;21.40;99.90
6956;DHT22;50345;51.136;16.886;2022-08-20T20:39:10;21.50;99.90
6956;DHT22;50345;51.136;16.886;2022-08-20T20:41:36;21.40;99.90
6956;DHT22;50345;51.136;16.886;2022-08-20T20:44:21;21.50;99.90
6956;DHT22;50345;51.136;16.886;2022-08-20T20:46:55;21.40;99.90
6956;DHT22;50345;51.136;16.886;2022-08-20T20:49:27;21.50;99.90
6956;DHT22;50345;51.136;16.886;2022-08-20T20:52:06;21.40;99.90
6956;DHT22;50345;51.136;16.886;2022-08-20T20:54:41;21.50;99.90
6956;DHT22;50345;51.136;16.886;2022-08-20T20:59:46;21.40;99.90
6956;DHT22;50345;51.136;16.886;2022-08-20T21:02:19;21.40;99.90
6956;DHT22;50345;51.136;16.886;2022-08-20T21:04:46;21.40;99.90
6956;DHT22;50345;51.136;16.886;2022-08-20T21:07:20;21.40;99.90
6956;DHT22;50345;51.136;16.886;2022-08-20T21:09:46;21.40;99.90
6956;DHT22;50345;51.136;16.886;2022-08-20T21:12:14;21.50;99.90
6956;DHT22;50345;51.136;16.886;2022-08-20T21:14:40;21.40;99.90
6956;DHT22;50345;51.136;16.886;2022-08-20T21:17:07;21.40;99.90
6956;DHT22;50345;51.136;16.886;2022-08-20T21:19:33;21.30;99.90
6956;DHT22;50345;51.136;16.886;2022-08-20T21:21:59;21.40;99.90
6956;DHT22;50345;51.136;16.886;2022-08-20T21:24:25;21.30;99.90
6956;DHT22;50345;51.136;16.886;2022-08-20T21:26:51;21.30;99.90
6956;DHT22;50345;51.136;16.886;2022-08-20T21:29:22;21.20;99.90
6956;DHT22;50345;51.136;16.886;2022-08-20T21:31:51;21.30;99.90
6956;DHT22;50345;51.136;16.886;2022-08-20T21:34:16;21.20;99.90
6956;DHT22;50345;51.136;16.886;2022-08-20T21:36:43;21.20;99.90
6956;DHT22;50345;51.136;16.886;2022-08-20T21:39:08;21.20;99.90
6956;DHT22;50345;51.136;16.886;2022-08-20T21:41:36;21.20;99.90
6956;DHT22;50345;51.136;16.886;2022-08-20T21:46:36;21.10;99.90
6956;DHT22;50345;51.136;16.886;2022-08-20T21:49:02;21.10;99.90
6956;DHT22;50345;51.136;16.886;2022-08-20T21:51:27;21.10;99.90
6956;DHT22;50345;51.136;16.886;2022-08-20T21:53:53;21.10;99.90
6956;DHT22;50345;51.136;16.886;2022-08-20T21:56:18;21.10;99.90
6956;DHT22;50345;51.136;16.886;2022-08-20T21:58:46;21.10;99.90
6956;DHT22;50345;51.136;16.886;2022-08-20T22:01:13;21.00;99.90
6956;DHT22;50345;51.136;16.886;2022-08-20T22:03:39;21.00;99.90
6956;DHT22;50345;51.136;16.886;2022-08-20T22:06:06;21.10;99.90
6956;DHT22;50345;51.136;16.886;2022-08-20T22:08:32;21.00;99.90
6956;DHT22;50345;51.136;16.886;2022-08-20T22:10:58;21.00;99.90
6956;DHT22;50345;51.136;16.886;2022-08-20T22:13:26;21.00;99.90
6956;DHT22;50345;51.136;16.886;2022-08-20T22:15:56;21.00;99.90
6956;DHT22;50345;51.136;16.886;2022-08-20T22:18:22;20.90;99.90
6956;DHT22;50345;51.136;16.886;2022-08-20T22:20:48;21.00;99.90
6956;DHT22;50345;51.136;16.886;2022-08-20T22:23:14;20.90;99.90
6956;DHT22;50345;51.136;16.886;2022-08-20T22:25:40;20.90;99.90
6956;DHT22;50345;51.136;16.886;2022-08-20T22:28:05;20.90;99.90
6956;DHT22;50345;51.136;16.886;2022-08-20T22:30:31;20.90;99.90
6956;DHT22;50345;51.136;16.886;2022-08-20T22:33:03;20.90;99.90
6956;DHT22;50345;51.136;16.886;2022-08-20T22:35:29;21.00;99.90
6956;DHT22;50345;51.136;16.886;2022-08-20T22:37:56;20.90;99.90
6956;DHT22;50345;51.136;16.886;2022-08-20T22:40:22;21.00;99.90
6956;DHT22;50345;51.136;16.886;2022-08-20T22:42:48;21.10;99.90
6956;DHT22;50345;51.136;16.886;2022-08-20T22:45:14;20.90;99.90
6956;DHT22;50345;51.136;16.886;2022-08-20T22:47:40;20.90;99.90
6956;DHT22;50345;51.136;16.886;2022-08-20T22:50:06;20.90;99.90
6956;DHT22;50345;51.136;16.886;2022-08-20T22:52:35;20.80;99.90
6956;DHT22;50345;51.136;16.886;2022-08-20T22:55:01;20.80;99.90
6956;DHT22;50345;51.136;16.886;2022-08-20T22:57:27;20.90;99.90
6956;DHT22;50345;51.136;16.886;2022-08-20T22:59:53;20.80;99.90
6956;DHT22;50345;51.136;16.886;2022-08-20T23:02:20;20.70;99.90
6956;DHT22;50345;51.136;16.886;2022-08-20T23:04:46;20.70;99.90
6956;DHT22;50345;51.136;16.886;2022-08-20T23:07:12;20.70;99.90
6956;DHT22;50345;51.136;16.886;2022-08-20T23:09:41;20.70;99.90
6956;DHT22;50345;51.136;16.886;2022-08-20T23:12:09;20.60;99.90
6956;DHT22;50345;51.136;16.886;2022-08-20T23:14:35;20.60;99.90
6956;DHT22;50345;51.136;16.886;2022-08-20T23:17:10;20.70;99.90
6956;DHT22;50345;51.136;16.886;2022-08-20T23:19:38;20.60;99.90
6956;DHT22;50345;51.136;16.886;2022-08-20T23:22:04;20.60;99.90
6956;DHT22;50345;51.136;16.886;2022-08-20T23:24:31;20.60;99.90
6956;DHT22;50345;51.136;16.886;2022-08-20T23:26:57;20.70;99.90
6956;DHT22;50345;51.136;16.886;2022-08-20T23:29:25;20.50;99.90
6956;DHT22;50345;51.136;16.886;2022-08-20T23:31:55;20.60;99.90
6956;DHT22;50345;51.136;16.886;2022-08-20T23:34:20;20.60;99.90
6956;DHT22;50345;51.136;16.886;2022-08-20T23:36:46;20.50;99.90
6956;DHT22;50345;51.136;16.886;2022-08-20T23:39:12;20.60;99.90
6956;DHT22;50345;51.136;16.886;2022-08-20T23:41:38;20.60;99.90
6956;DHT22;50345;51.136;16.886;2022-08-20T23:44:04;20.50;99.90
6956;DHT22;50345;51.136;16.886;2022-08-20T23:46:32;20.50;99.90
6956;DHT22;50345;51.136;16.886;2022-08-20T23:48:59;20.50;99.90
6956;DHT22;50345;51.136;16.886;2022-08-20T23:51:25;20.50;99.90
6956;DHT22;50345;51.136;16.886;2022-08-20T23:53:51;20.50;99.90
6956;DHT22;50345;51.136;16.886;2022-08-20T23:56:16;20.50;99.90
6956;DHT22;50345;51.136;16.886;2022-08-20T23:58:42;20.50;99.90
